sensor_id;sensor_type;location;lat;lon;timestamp;P1;durP1;ratioP1;P2;durP2;ratioP2
14663;SDS011;7419;52.184;5.944;2022-09-30T00:02:52;0.52;;;0.17;;
14663;SDS011;7419;52.184;5.944;2022-09-30T00:02:52;0.87;;;0.15;;
14663;SDS011;7419;52.184;5.944;2022-09-30T00:02:52;1.09;;;0.27;;
14663;SDS011;7419;52.184;5.944;2022-09-30T00:03:18;0.38;;;0.38;;
14663;SDS011;7419;52.184;5.944;2022-09-30T00:04:19;1.46;;;0.38;;
14663;SDS011;7419;52.184;5.944;2022-09-30T00:05:18;0.32;;;0.18;;
14663;SDS011;7419;52.184;5.944;2022-09-30T00:06:18;1.97;;;0.28;;
14663;SDS011;7419;52.184;5.944;2022-09-30T00:07:18;0.64;;;0.21;;
14663;SDS011;7419;52.184;5.944;2022-09-30T00:08:18;0.75;;;0.33;;
14663;SDS011;7419;52.184;5.944;2022-09-30T00:09:18;0.86;;;0.19;;
14663;SDS011;7419;52.184;5.944;2022-09-30T00:10:18;0.31;;;0.22;;
14663;SDS011;7419;52.184;5.944;2022-09-30T00:11:19;0.90;;;0.20;;
14663;SDS011;7419;52.184;5.944;2022-09-30T00:12:18;1.03;;;0.28;;
14663;SDS011;7419;52.184;5.944;2022-09-30T00:13:18;1.14;;;0.22;;
14663;SDS011;7419;52.184;5.944;2022-09-30T00:14:19;1.54;;;0.20;;
14663;SDS011;7419;52.184;5.944;2022-09-30T00:15:18;0.29;;;0.28;;
14663;SDS011;7419;52.184;5.944;2022-09-30T00:16:19;0.36;;;0.20;;
14663;SDS011;7419;52.184;5.944;2022-09-30T00:17:18;0.24;;;0.22;;
14663;SDS011;7419;52.184;5.944;2022-09-30T00:18:18;1.00;;;0.30;;
14663;SDS011;7419;52.184;5.944;2022-09-30T00:19:18;0.70;;;0.28;;
14663;SDS011;7419;52.184;5.944;2022-09-30T00:20:18;0.31;;;0.19;;
14663;SDS011;7419;52.184;5.944;2022-09-30T00:21:19;0.62;;;0.24;;
14663;SDS011;7419;52.184;5.944;2022-09-30T00:22:19;0.16;;;0.11;;
14663;SDS011;7419;52.184;5.944;2022-09-30T00:23:19;0.22;;;0.20;;
14663;SDS011;7419;52.184;5.944;2022-09-30T00:24:19;0.16;;;0.14;;
14663;SDS011;7419;52.184;5.944;2022-09-30T00:25:19;0.45;;;0.20;;
14663;SDS011;7419;52.184;5.944;2022-09-30T00:26:19;0.34;;;0.34;;
14663;SDS011;7419;52.184;5.944;2022-09-30T00:27:19;0.41;;;0.18;;
14663;SDS011;7419;52.184;5.944;2022-09-30T00:28:19;0.27;;;0.18;;
14663;SDS011;7419;52.184;5.944;2022-09-30T00:29:19;0.18;;;0.13;;
14663;SDS011;7419;52.184;5.944;2022-09-30T00:30:19;0.13;;;0.12;;
14663;SDS011;7419;52.184;5.944;2022-09-30T00:31:20;0.35;;;0.27;;
14663;SDS011;7419;52.184;5.944;2022-09-30T00:32:19;0.26;;;0.25;;
14663;SDS011;7419;52.184;5.944;2022-09-30T00:33:19;0.29;;;0.13;;
14663;SDS011;7419;52.184;5.944;2022-09-30T00:34:19;0.00;;;-0.00;;
14663;SDS011;7419;52.184;5.944;2022-09-30T00:35:19;0.46;;;0.10;;
14663;SDS011;7419;52.184;5.944;2022-09-30T00:36:19;0.20;;;0.10;;
14663;SDS011;7419;52.184;5.944;2022-09-30T00:37:20;0.27;;;0.19;;
14663;SDS011;7419;52.184;5.944;2022-09-30T00:38:20;1.87;;;0.21;;
14663;SDS011;7419;52.184;5.944;2022-09-30T00:39:21;0.13;;;0.13;;
14663;SDS011;7419;52.184;5.944;2022-09-30T00:40:20;0.18;;;0.13;;
14663;SDS011;7419;52.184;5.944;2022-09-30T00:41:20;0.28;;;0.17;;
14663;SDS011;7419;52.184;5.944;2022-09-30T00:42:20;0.30;;;0.21;;
14663;SDS011;7419;52.184;5.944;2022-09-30T00:43:37;0.30;;;0.12;;
14663;SDS011;7419;52.184;5.944;2022-09-30T00:45:20;0.17;;;0.16;;
14663;SDS011;7419;52.184;5.944;2022-09-30T00:46:22;0.05;;;0.04;;
14663;SDS011;7419;52.184;5.944;2022-09-30T00:47:27;0.12;;;0.11;;
14663;SDS011;7419;52.184;5.944;2022-09-30T00:48:29;0.18;;;0.10;;
14663;SDS011;7419;52.184;5.944;2022-09-30T00:49:21;0.15;;;0.14;;
14663;SDS011;7419;52.184;5.944;2022-09-30T00:50:25;0.10;;;0.09;;
14663;SDS011;7419;52.184;5.944;2022-09-30T00:51:23;0.13;;;0.13;;
14663;SDS011;7419;52.184;5.944;2022-09-30T00:52:21;0.10;;;0.10;;
14663;SDS011;7419;52.184;5.944;2022-09-30T00:53:22;0.27;;;0.10;;
14663;SDS011;7419;52.184;5.944;2022-09-30T00:54:22;0.22;;;0.18;;
14663;SDS011;7419;52.184;5.944;2022-09-30T00:55:24;0.24;;;0.12;;
14663;SDS011;7419;52.184;5.944;2022-09-30T00:56:22;0.31;;;0.11;;
14663;SDS011;7419;52.184;5.944;2022-09-30T00:57:21;0.18;;;0.18;;
14663;SDS011;7419;52.184;5.944;2022-09-30T00:58:23;0.10;;;0.08;;
14663;SDS011;7419;52.184;5.944;2022-09-30T00:59:21;0.20;;;0.20;;
14663;SDS011;7419;52.184;5.944;2022-09-30T01:00:21;0.34;;;0.28;;
14663;SDS011;7419;52.184;5.944;2022-09-30T01:01:21;0.07;;;0.06;;
14663;SDS011;7419;52.184;5.944;2022-09-30T01:02:21;0.16;;;0.14;;
14663;SDS011;7419;52.184;5.944;2022-09-30T01:03:21;0.20;;;0.19;;
14663;SDS011;7419;52.184;5.944;2022-09-30T01:04:22;0.28;;;0.12;;
14663;SDS011;7419;52.184;5.944;2022-09-30T01:05:22;0.01;;;0.01;;
14663;SDS011;7419;52.184;5.944;2022-09-30T01:06:22;0.12;;;0.11;;
14663;SDS011;7419;52.184;5.944;2022-09-30T01:07:21;0.30;;;0.13;;
14663;SDS011;7419;52.184;5.944;2022-09-30T01:08:22;0.11;;;0.10;;
14663;SDS011;7419;52.184;5.944;2022-09-30T01:09:21;0.12;;;0.10;;
14663;SDS011;7419;52.184;5.944;2022-09-30T01:10:22;1.67;;;0.40;;
14663;SDS011;7419;52.184;5.944;2022-09-30T01:11:22;0.19;;;0.14;;
14663;SDS011;7419;52.184;5.944;2022-09-30T01:12:22;0.58;;;0.15;;
14663;SDS011;7419;52.184;5.944;2022-09-30T01:13:22;0.23;;;0.15;;
14663;SDS011;7419;52.184;5.944;2022-09-30T01:14:22;0.19;;;0.13;;
14663;SDS011;7419;52.184;5.944;2022-09-30T01:15:23;0.80;;;0.19;;
14663;SDS011;7419;52.184;5.944;2022-09-30T01:16:28;0.09;;;0.09;;
14663;SDS011;7419;52.184;5.944;2022-09-30T01:17:25;0.39;;;0.09;;
14663;SDS011;7419;52.184;5.944;2022-09-30T01:18:25;0.32;;;0.14;;
14663;SDS011;7419;52.184;5.944;2022-09-30T01:19:26;0.32;;;0.18;;
14663;SDS011;7419;52.184;5.944;2022-09-30T01:21:31;0.26;;;0.18;;
14663;SDS011;7419;52.184;5.944;2022-09-30T01:22:26;0.23;;;0.17;;
14663;SDS011;7419;52.184;5.944;2022-09-30T01:24:27;0.91;;;0.19;;
14663;SDS011;7419;52.184;5.944;2022-09-30T01:25:29;0.03;;;0.02;;
14663;SDS011;7419;52.184;5.944;2022-09-30T01:26:28;0.33;;;0.10;;
14663;SDS011;7419;52.184;5.944;2022-09-30T01:27:46;0.08;;;0.07;;
14663;SDS011;7419;52.184;5.944;2022-09-30T01:28:28;0.14;;;0.13;;
14663;SDS011;7419;52.184;5.944;2022-09-30T01:29:43;2.06;;;0.10;;
14663;SDS011;7419;52.184;5.944;2022-09-30T01:30:31;0.10;;;0.10;;
14663;SDS011;7419;52.184;5.944;2022-09-30T01:31:27;0.50;;;0.20;;
14663;SDS011;7419;52.184;5.944;2022-09-30T01:32:26;0.12;;;0.11;;
14663;SDS011;7419;52.184;5.944;2022-09-30T01:33:25;0.52;;;0.19;;
14663;SDS011;7419;52.184;5.944;2022-09-30T01:34:25;0.14;;;0.14;;
14663;SDS011;7419;52.184;5.944;2022-09-30T01:35:24;0.32;;;0.21;;
14663;SDS011;7419;52.184;5.944;2022-09-30T01:36:26;0.08;;;0.07;;
14663;SDS011;7419;52.184;5.944;2022-09-30T01:37:24;0.00;;;-0.00;;
14663;SDS011;7419;52.184;5.944;2022-09-30T01:38:25;0.17;;;0.16;;
14663;SDS011;7419;52.184;5.944;2022-09-30T01:39:26;0.15;;;0.15;;
14663;SDS011;7419;52.184;5.944;2022-09-30T01:40:24;0.07;;;0.02;;
14663;SDS011;7419;52.184;5.944;2022-09-30T01:41:24;0.55;;;0.18;;
14663;SDS011;7419;52.184;5.944;2022-09-30T01:42:24;0.22;;;0.14;;
14663;SDS011;7419;52.184;5.944;2022-09-30T01:43:25;0.65;;;0.21;;
14663;SDS011;7419;52.184;5.944;2022-09-30T01:44:27;1.10;;;0.14;;
14663;SDS011;7419;52.184;5.944;2022-09-30T01:45:26;0.91;;;0.33;;
14663;SDS011;7419;52.184;5.944;2022-09-30T01:46:27;0.09;;;0.08;;
14663;SDS011;7419;52.184;5.944;2022-09-30T01:47:24;0.10;;;0.10;;
14663;SDS011;7419;52.184;5.944;2022-09-30T01:48:25;0.22;;;0.10;;
14663;SDS011;7419;52.184;5.944;2022-09-30T01:49:26;0.15;;;0.15;;
14663;SDS011;7419;52.184;5.944;2022-09-30T01:50:26;0.13;;;0.06;;
14663;SDS011;7419;52.184;5.944;2022-09-30T01:51:26;0.54;;;0.12;;
14663;SDS011;7419;52.184;5.944;2022-09-30T01:52:27;0.53;;;0.10;;
14663;SDS011;7419;52.184;5.944;2022-09-30T01:53:26;0.05;;;0.04;;
14663;SDS011;7419;52.184;5.944;2022-09-30T01:54:26;0.10;;;0.10;;
14663;SDS011;7419;52.184;5.944;2022-09-30T01:55:26;0.13;;;0.10;;
14663;SDS011;7419;52.184;5.944;2022-09-30T01:56:26;0.11;;;0.11;;
14663;SDS011;7419;52.184;5.944;2022-09-30T01:57:25;2.48;;;0.10;;
14663;SDS011;7419;52.184;5.944;2022-09-30T01:58:26;0.16;;;0.15;;
14663;SDS011;7419;52.184;5.944;2022-09-30T01:59:25;0.19;;;0.06;;
14663;SDS011;7419;52.184;5.944;2022-09-30T02:00:24;0.12;;;0.11;;
14663;SDS011;7419;52.184;5.944;2022-09-30T02:01:26;0.55;;;0.30;;
14663;SDS011;7419;52.184;5.944;2022-09-30T02:02:25;0.10;;;0.09;;
14663;SDS011;7419;52.184;5.944;2022-09-30T02:03:26;0.00;;;-0.00;;
14663;SDS011;7419;52.184;5.944;2022-09-30T02:04:26;0.51;;;0.16;;
14663;SDS011;7419;52.184;5.944;2022-09-30T02:05:27;0.04;;;0.04;;
14663;SDS011;7419;52.184;5.944;2022-09-30T02:06:25;0.10;;;0.10;;
14663;SDS011;7419;52.184;5.944;2022-09-30T02:07:27;0.36;;;0.14;;
14663;SDS011;7419;52.184;5.944;2022-09-30T02:08:25;0.38;;;0.38;;
14663;SDS011;7419;52.184;5.944;2022-09-30T02:09:25;0.00;;;-0.00;;
14663;SDS011;7419;52.184;5.944;2022-09-30T02:10:25;0.90;;;0.09;;
14663;SDS011;7419;52.184;5.944;2022-09-30T02:11:25;0.15;;;0.15;;
14663;SDS011;7419;52.184;5.944;2022-09-30T02:12:25;0.06;;;0.06;;
14663;SDS011;7419;52.184;5.944;2022-09-30T02:13:27;0.20;;;0.09;;
14663;SDS011;7419;52.184;5.944;2022-09-30T02:14:26;1.44;;;0.12;;
14663;SDS011;7419;52.184;5.944;2022-09-30T02:15:26;0.10;;;0.09;;
14663;SDS011;7419;52.184;5.944;2022-09-30T02:16:27;0.10;;;0.09;;
14663;SDS011;7419;52.184;5.944;2022-09-30T02:17:26;1.33;;;0.30;;
14663;SDS011;7419;52.184;5.944;2022-09-30T02:18:27;0.05;;;0.05;;
14663;SDS011;7419;52.184;5.944;2022-09-30T02:19:27;0.10;;;0.09;;
14663;SDS011;7419;52.184;5.944;2022-09-30T02:20:26;0.11;;;0.11;;
14663;SDS011;7419;52.184;5.944;2022-09-30T02:21:26;1.10;;;0.10;;
14663;SDS011;7419;52.184;5.944;2022-09-30T02:22:27;0.13;;;0.12;;
14663;SDS011;7419;52.184;5.944;2022-09-30T02:23:26;0.10;;;0.10;;
14663;SDS011;7419;52.184;5.944;2022-09-30T02:24:26;0.10;;;0.10;;
14663;SDS011;7419;52.184;5.944;2022-09-30T02:25:27;0.10;;;0.10;;
14663;SDS011;7419;52.184;5.944;2022-09-30T02:26:27;0.00;;;-0.00;;
14663;SDS011;7419;52.184;5.944;2022-09-30T02:27:28;2.26;;;0.16;;
14663;SDS011;7419;52.184;5.944;2022-09-30T02:28:26;0.08;;;0.08;;
14663;SDS011;7419;52.184;5.944;2022-09-30T02:29:27;0.08;;;0.08;;
14663;SDS011;7419;52.184;5.944;2022-09-30T02:30:26;0.10;;;0.10;;
14663;SDS011;7419;52.184;5.944;2022-09-30T02:31:26;0.50;;;0.04;;
14663;SDS011;7419;52.184;5.944;2022-09-30T02:32:27;0.11;;;0.11;;
14663;SDS011;7419;52.184;5.944;2022-09-30T02:33:29;0.10;;;0.10;;
14663;SDS011;7419;52.184;5.944;2022-09-30T02:34:27;0.66;;;0.09;;
14663;SDS011;7419;52.184;5.944;2022-09-30T02:35:27;3.09;;;0.17;;
14663;SDS011;7419;52.184;5.944;2022-09-30T02:36:27;0.10;;;0.10;;
14663;SDS011;7419;52.184;5.944;2022-09-30T02:37:27;0.50;;;0.20;;
14663;SDS011;7419;52.184;5.944;2022-09-30T02:38:27;0.66;;;0.32;;
14663;SDS011;7419;52.184;5.944;2022-09-30T02:39:27;0.21;;;0.20;;
14663;SDS011;7419;52.184;5.944;2022-09-30T02:40:27;0.07;;;0.07;;
14663;SDS011;7419;52.184;5.944;2022-09-30T02:41:27;0.05;;;0.05;;
14663;SDS011;7419;52.184;5.944;2022-09-30T02:42:27;0.10;;;0.10;;
14663;SDS011;7419;52.184;5.944;2022-09-30T02:43:27;0.28;;;0.17;;
14663;SDS011;7419;52.184;5.944;2022-09-30T02:44:27;0.18;;;0.14;;
14663;SDS011;7419;52.184;5.944;2022-09-30T02:45:27;0.74;;;0.14;;
14663;SDS011;7419;52.184;5.944;2022-09-30T02:46:30;0.10;;;0.10;;
14663;SDS011;7419;52.184;5.944;2022-09-30T02:47:27;0.45;;;0.20;;
14663;SDS011;7419;52.184;5.944;2022-09-30T02:48:28;0.21;;;0.17;;
14663;SDS011;7419;52.184;5.944;2022-09-30T02:49:28;0.22;;;0.09;;
14663;SDS011;7419;52.184;5.944;2022-09-30T02:50:28;0.10;;;0.10;;
14663;SDS011;7419;52.184;5.944;2022-09-30T02:51:29;0.27;;;0.22;;
14663;SDS011;7419;52.184;5.944;2022-09-30T02:52:29;0.23;;;0.23;;
14663;SDS011;7419;52.184;5.944;2022-09-30T02:53:29;0.42;;;0.20;;
14663;SDS011;7419;52.184;5.944;2022-09-30T02:54:29;1.33;;;0.36;;
14663;SDS011;7419;52.184;5.944;2022-09-30T02:55:29;1.82;;;0.33;;
14663;SDS011;7419;52.184;5.944;2022-09-30T02:56:29;0.96;;;0.23;;
14663;SDS011;7419;52.184;5.944;2022-09-30T02:57:29;1.06;;;0.59;;
14663;SDS011;7419;52.184;5.944;2022-09-30T02:58:28;1.56;;;0.61;;
14663;SDS011;7419;52.184;5.944;2022-09-30T02:59:28;2.74;;;0.60;;
14663;SDS011;7419;52.184;5.944;2022-09-30T03:00:28;1.83;;;0.54;;
14663;SDS011;7419;52.184;5.944;2022-09-30T03:01:28;0.98;;;0.55;;
14663;SDS011;7419;52.184;5.944;2022-09-30T03:02:28;2.08;;;0.55;;
14663;SDS011;7419;52.184;5.944;2022-09-30T03:03:29;0.48;;;0.35;;
14663;SDS011;7419;52.184;5.944;2022-09-30T03:04:29;0.50;;;0.19;;
14663;SDS011;7419;52.184;5.944;2022-09-30T03:05:28;1.23;;;0.46;;
14663;SDS011;7419;52.184;5.944;2022-09-30T03:06:28;0.97;;;0.71;;
14663;SDS011;7419;52.184;5.944;2022-09-30T03:07:28;0.50;;;0.20;;
14663;SDS011;7419;52.184;5.944;2022-09-30T03:08:28;1.13;;;0.45;;
14663;SDS011;7419;52.184;5.944;2022-09-30T03:09:28;1.38;;;0.47;;
14663;SDS011;7419;52.184;5.944;2022-09-30T03:10:28;0.57;;;0.16;;
14663;SDS011;7419;52.184;5.944;2022-09-30T03:11:28;0.08;;;0.07;;
14663;SDS011;7419;52.184;5.944;2022-09-30T03:12:32;0.26;;;0.14;;
14663;SDS011;7419;52.184;5.944;2022-09-30T03:13:35;1.36;;;0.20;;
14663;SDS011;7419;52.184;5.944;2022-09-30T03:14:32;0.67;;;0.11;;
14663;SDS011;7419;52.184;5.944;2022-09-30T03:15:30;0.27;;;0.22;;
14663;SDS011;7419;52.184;5.944;2022-09-30T03:16:32;0.37;;;0.10;;
14663;SDS011;7419;52.184;5.944;2022-09-30T03:17:32;0.93;;;0.15;;
14663;SDS011;7419;52.184;5.944;2022-09-30T03:18:32;0.12;;;0.11;;
14663;SDS011;7419;52.184;5.944;2022-09-30T03:19:34;0.23;;;0.11;;
14663;SDS011;7419;52.184;5.944;2022-09-30T03:20:33;1.97;;;0.12;;
14663;SDS011;7419;52.184;5.944;2022-09-30T03:21:33;0.15;;;0.12;;
14663;SDS011;7419;52.184;5.944;2022-09-30T03:22:34;0.09;;;0.05;;
14663;SDS011;7419;52.184;5.944;2022-09-30T03:23:33;0.28;;;0.10;;
14663;SDS011;7419;52.184;5.944;2022-09-30T03:24:35;0.16;;;0.15;;
14663;SDS011;7419;52.184;5.944;2022-09-30T03:25:31;0.10;;;0.10;;
14663;SDS011;7419;52.184;5.944;2022-09-30T03:26:33;0.54;;;0.28;;
14663;SDS011;7419;52.184;5.944;2022-09-30T03:27:30;0.90;;;0.30;;
14663;SDS011;7419;52.184;5.944;2022-09-30T03:28:30;0.24;;;0.16;;
14663;SDS011;7419;52.184;5.944;2022-09-30T03:29:31;0.29;;;0.26;;
14663;SDS011;7419;52.184;5.944;2022-09-30T03:30:30;0.08;;;0.08;;
14663;SDS011;7419;52.184;5.944;2022-09-30T03:31:31;0.83;;;0.23;;
14663;SDS011;7419;52.184;5.944;2022-09-30T03:32:32;1.31;;;0.11;;
14663;SDS011;7419;52.184;5.944;2022-09-30T03:33:32;0.14;;;0.10;;
14663;SDS011;7419;52.184;5.944;2022-09-30T03:34:31;8.34;;;0.30;;
14663;SDS011;7419;52.184;5.944;2022-09-30T03:35:31;0.23;;;0.23;;
14663;SDS011;7419;52.184;5.944;2022-09-30T03:36:30;2.01;;;0.15;;
14663;SDS011;7419;52.184;5.944;2022-09-30T03:37:31;0.29;;;0.20;;
14663;SDS011;7419;52.184;5.944;2022-09-30T03:38:33;0.10;;;0.10;;
14663;SDS011;7419;52.184;5.944;2022-09-30T03:39:34;0.32;;;0.20;;
14663;SDS011;7419;52.184;5.944;2022-09-30T03:40:32;0.13;;;0.11;;
14663;SDS011;7419;52.184;5.944;2022-09-30T03:41:31;0.19;;;0.19;;
14663;SDS011;7419;52.184;5.944;2022-09-30T03:42:32;0.34;;;0.34;;
14663;SDS011;7419;52.184;5.944;2022-09-30T03:43:32;0.35;;;0.27;;
14663;SDS011;7419;52.184;5.944;2022-09-30T03:44:31;0.18;;;0.13;;
14663;SDS011;7419;52.184;5.944;2022-09-30T03:45:32;0.69;;;0.38;;
14663;SDS011;7419;52.184;5.944;2022-09-30T03:46:32;0.79;;;0.22;;
14663;SDS011;7419;52.184;5.944;2022-09-30T03:47:32;0.18;;;0.18;;
14663;SDS011;7419;52.184;5.944;2022-09-30T03:48:31;0.26;;;0.26;;
14663;SDS011;7419;52.184;5.944;2022-09-30T03:49:31;0.33;;;0.18;;
14663;SDS011;7419;52.184;5.944;2022-09-30T03:50:31;0.71;;;0.27;;
14663;SDS011;7419;52.184;5.944;2022-09-30T03:51:31;0.21;;;0.21;;
14663;SDS011;7419;52.184;5.944;2022-09-30T03:52:31;0.47;;;0.34;;
14663;SDS011;7419;52.184;5.944;2022-09-30T03:53:35;0.40;;;0.37;;
14663;SDS011;7419;52.184;5.944;2022-09-30T03:54:31;1.52;;;0.30;;
14663;SDS011;7419;52.184;5.944;2022-09-30T03:55:31;0.30;;;0.30;;
14663;SDS011;7419;52.184;5.944;2022-09-30T03:56:31;0.30;;;0.30;;
14663;SDS011;7419;52.184;5.944;2022-09-30T03:57:31;0.31;;;0.31;;
14663;SDS011;7419;52.184;5.944;2022-09-30T03:58:31;0.38;;;0.38;;
14663;SDS011;7419;52.184;5.944;2022-09-30T03:59:31;0.99;;;0.45;;
14663;SDS011;7419;52.184;5.944;2022-09-30T04:00:31;0.60;;;0.20;;
14663;SDS011;7419;52.184;5.944;2022-09-30T04:01:32;0.20;;;0.20;;
14663;SDS011;7419;52.184;5.944;2022-09-30T04:02:32;0.42;;;0.42;;
14663;SDS011;7419;52.184;5.944;2022-09-30T04:03:32;0.40;;;0.40;;
14663;SDS011;7419;52.184;5.944;2022-09-30T04:04:32;3.86;;;0.36;;
14663;SDS011;7419;52.184;5.944;2022-09-30T04:05:32;0.27;;;0.27;;
14663;SDS011;7419;52.184;5.944;2022-09-30T04:06:32;0.76;;;0.48;;
14663;SDS011;7419;52.184;5.944;2022-09-30T04:07:32;0.58;;;0.37;;
14663;SDS011;7419;52.184;5.944;2022-09-30T04:08:32;0.90;;;0.31;;
14663;SDS011;7419;52.184;5.944;2022-09-30T04:09:32;0.46;;;0.45;;
14663;SDS011;7419;52.184;5.944;2022-09-30T04:10:32;0.80;;;0.37;;
14663;SDS011;7419;52.184;5.944;2022-09-30T04:11:32;0.34;;;0.24;;
14663;SDS011;7419;52.184;5.944;2022-09-30T04:12:32;1.30;;;0.30;;
14663;SDS011;7419;52.184;5.944;2022-09-30T04:13:32;0.29;;;0.24;;
14663;SDS011;7419;52.184;5.944;2022-09-30T04:14:32;1.07;;;0.48;;
14663;SDS011;7419;52.184;5.944;2022-09-30T04:15:32;0.84;;;0.26;;
14663;SDS011;7419;52.184;5.944;2022-09-30T04:16:33;0.27;;;0.27;;
14663;SDS011;7419;52.184;5.944;2022-09-30T04:17:32;2.29;;;0.44;;
14663;SDS011;7419;52.184;5.944;2022-09-30T04:18:33;0.29;;;0.29;;
14663;SDS011;7419;52.184;5.944;2022-09-30T04:19:32;4.21;;;0.62;;
14663;SDS011;7419;52.184;5.944;2022-09-30T04:20:33;0.92;;;0.42;;
14663;SDS011;7419;52.184;5.944;2022-09-30T04:21:33;0.59;;;0.44;;
14663;SDS011;7419;52.184;5.944;2022-09-30T04:22:33;1.00;;;0.37;;
14663;SDS011;7419;52.184;5.944;2022-09-30T04:23:33;3.36;;;0.46;;
14663;SDS011;7419;52.184;5.944;2022-09-30T04:24:33;1.85;;;0.77;;
14663;SDS011;7419;52.184;5.944;2022-09-30T04:25:33;0.67;;;0.41;;
14663;SDS011;7419;52.184;5.944;2022-09-30T04:26:33;0.30;;;0.26;;
14663;SDS011;7419;52.184;5.944;2022-09-30T04:27:33;1.68;;;0.36;;
14663;SDS011;7419;52.184;5.944;2022-09-30T04:28:33;0.51;;;0.41;;
14663;SDS011;7419;52.184;5.944;2022-09-30T04:29:33;0.58;;;0.59;;
14663;SDS011;7419;52.184;5.944;2022-09-30T04:30:33;0.45;;;0.42;;
14663;SDS011;7419;52.184;5.944;2022-09-30T04:31:33;1.73;;;0.54;;
14663;SDS011;7419;52.184;5.944;2022-09-30T04:32:33;0.51;;;0.47;;
14663;SDS011;7419;52.184;5.944;2022-09-30T04:33:33;1.54;;;0.40;;
14663;SDS011;7419;52.184;5.944;2022-09-30T04:34:34;1.08;;;0.73;;
14663;SDS011;7419;52.184;5.944;2022-09-30T04:35:35;0.50;;;0.50;;
14663;SDS011;7419;52.184;5.944;2022-09-30T04:36:34;0.51;;;0.52;;
14663;SDS011;7419;52.184;5.944;2022-09-30T04:37:34;1.23;;;0.56;;
14663;SDS011;7419;52.184;5.944;2022-09-30T04:38:34;0.93;;;0.68;;
14663;SDS011;7419;52.184;5.944;2022-09-30T04:39:34;0.67;;;0.54;;
14663;SDS011;7419;52.184;5.944;2022-09-30T04:40:35;1.73;;;0.73;;
14663;SDS011;7419;52.184;5.944;2022-09-30T04:41:34;2.41;;;0.73;;
14663;SDS011;7419;52.184;5.944;2022-09-30T04:42:34;1.11;;;0.68;;
14663;SDS011;7419;52.184;5.944;2022-09-30T04:43:34;0.73;;;0.61;;
14663;SDS011;7419;52.184;5.944;2022-09-30T04:44:34;0.86;;;0.82;;
14663;SDS011;7419;52.184;5.944;2022-09-30T04:45:34;1.04;;;0.76;;
14663;SDS011;7419;52.184;5.944;2022-09-30T04:46:35;1.23;;;0.60;;
14663;SDS011;7419;52.184;5.944;2022-09-30T04:47:34;1.22;;;0.97;;
14663;SDS011;7419;52.184;5.944;2022-09-30T04:48:34;0.56;;;0.54;;
14663;SDS011;7419;52.184;5.944;2022-09-30T04:49:34;1.39;;;0.80;;
14663;SDS011;7419;52.184;5.944;2022-09-30T04:50:34;2.13;;;1.06;;
14663;SDS011;7419;52.184;5.944;2022-09-30T04:51:35;0.84;;;0.74;;
14663;SDS011;7419;52.184;5.944;2022-09-30T04:52:35;1.39;;;1.28;;
14663;SDS011;7419;52.184;5.944;2022-09-30T04:53:35;1.12;;;0.85;;
14663;SDS011;7419;52.184;5.944;2022-09-30T04:54:35;0.75;;;0.70;;
14663;SDS011;7419;52.184;5.944;2022-09-30T04:55:35;1.41;;;0.98;;
14663;SDS011;7419;52.184;5.944;2022-09-30T04:56:35;4.09;;;1.02;;
14663;SDS011;7419;52.184;5.944;2022-09-30T04:57:35;1.72;;;0.89;;
14663;SDS011;7419;52.184;5.944;2022-09-30T04:58:35;1.83;;;0.90;;
14663;SDS011;7419;52.184;5.944;2022-09-30T04:59:35;7.27;;;1.06;;
14663;SDS011;7419;52.184;5.944;2022-09-30T05:00:35;0.92;;;0.88;;
14663;SDS011;7419;52.184;5.944;2022-09-30T05:01:35;1.96;;;1.04;;
14663;SDS011;7419;52.184;5.944;2022-09-30T05:02:35;2.41;;;0.69;;
14663;SDS011;7419;52.184;5.944;2022-09-30T05:03:35;1.24;;;1.00;;
14663;SDS011;7419;52.184;5.944;2022-09-30T05:04:35;0.93;;;0.72;;
14663;SDS011;7419;52.184;5.944;2022-09-30T05:05:35;0.84;;;0.85;;
14663;SDS011;7419;52.184;5.944;2022-09-30T05:06:35;1.36;;;1.23;;
14663;SDS011;7419;52.184;5.944;2022-09-30T05:07:35;2.54;;;1.05;;
14663;SDS011;7419;52.184;5.944;2022-09-30T05:08:35;1.40;;;1.19;;
14663;SDS011;7419;52.184;5.944;2022-09-30T05:09:35;1.22;;;1.10;;
14663;SDS011;7419;52.184;5.944;2022-09-30T05:10:36;1.16;;;1.02;;
14663;SDS011;7419;52.184;5.944;2022-09-30T05:11:36;3.82;;;1.37;;
14663;SDS011;7419;52.184;5.944;2022-09-30T05:12:36;1.71;;;1.17;;
14663;SDS011;7419;52.184;5.944;2022-09-30T05:13:37;1.85;;;1.23;;
14663;SDS011;7419;52.184;5.944;2022-09-30T05:14:36;1.56;;;1.41;;
14663;SDS011;7419;52.184;5.944;2022-09-30T05:15:36;2.29;;;1.50;;
14663;SDS011;7419;52.184;5.944;2022-09-30T05:16:36;2.10;;;1.30;;
14663;SDS011;7419;52.184;5.944;2022-09-30T05:17:36;2.17;;;1.27;;
14663;SDS011;7419;52.184;5.944;2022-09-30T05:18:36;1.28;;;1.19;;
14663;SDS011;7419;52.184;5.944;2022-09-30T05:19:36;2.57;;;1.28;;
14663;SDS011;7419;52.184;5.944;2022-09-30T05:20:36;2.47;;;1.61;;
14663;SDS011;7419;52.184;5.944;2022-09-30T05:21:36;2.92;;;1.70;;
14663;SDS011;7419;52.184;5.944;2022-09-30T05:22:36;1.48;;;1.35;;
14663;SDS011;7419;52.184;5.944;2022-09-30T05:23:37;5.98;;;1.52;;
14663;SDS011;7419;52.184;5.944;2022-09-30T05:24:36;2.19;;;1.48;;
14663;SDS011;7419;52.184;5.944;2022-09-30T05:25:36;2.71;;;1.32;;
14663;SDS011;7419;52.184;5.944;2022-09-30T05:26:36;1.46;;;1.22;;
14663;SDS011;7419;52.184;5.944;2022-09-30T05:27:36;2.22;;;1.57;;
14663;SDS011;7419;52.184;5.944;2022-09-30T05:28:36;1.86;;;1.52;;
14663;SDS011;7419;52.184;5.944;2022-09-30T05:29:36;3.46;;;1.75;;
14663;SDS011;7419;52.184;5.944;2022-09-30T05:30:37;2.17;;;1.37;;
14663;SDS011;7419;52.184;5.944;2022-09-30T05:31:37;1.76;;;1.32;;
14663;SDS011;7419;52.184;5.944;2022-09-30T05:32:37;2.39;;;1.64;;
14663;SDS011;7419;52.184;5.944;2022-09-30T05:33:37;2.59;;;1.73;;
14663;SDS011;7419;52.184;5.944;2022-09-30T05:34:37;1.62;;;1.29;;
14663;SDS011;7419;52.184;5.944;2022-09-30T05:35:37;1.85;;;1.71;;
14663;SDS011;7419;52.184;5.944;2022-09-30T05:36:37;1.42;;;1.25;;
14663;SDS011;7419;52.184;5.944;2022-09-30T05:37:37;2.08;;;1.79;;
14663;SDS011;7419;52.184;5.944;2022-09-30T05:38:37;2.00;;;1.54;;
14663;SDS011;7419;52.184;5.944;2022-09-30T05:39:37;2.12;;;1.48;;
14663;SDS011;7419;52.184;5.944;2022-09-30T05:40:37;1.71;;;1.53;;
14663;SDS011;7419;52.184;5.944;2022-09-30T05:41:37;2.02;;;1.70;;
14663;SDS011;7419;52.184;5.944;2022-09-30T05:42:37;1.94;;;1.41;;
14663;SDS011;7419;52.184;5.944;2022-09-30T05:43:38;1.71;;;1.55;;
14663;SDS011;7419;52.184;5.944;2022-09-30T05:44:37;2.26;;;1.59;;
14663;SDS011;7419;52.184;5.944;2022-09-30T05:45:37;2.99;;;1.90;;
14663;SDS011;7419;52.184;5.944;2022-09-30T05:46:37;3.20;;;1.52;;
14663;SDS011;7419;52.184;5.944;2022-09-30T05:47:38;2.09;;;1.62;;
14663;SDS011;7419;52.184;5.944;2022-09-30T05:48:38;1.97;;;1.75;;
14663;SDS011;7419;52.184;5.944;2022-09-30T05:49:38;2.45;;;1.61;;
14663;SDS011;7419;52.184;5.944;2022-09-30T05:50:38;2.94;;;1.88;;
14663;SDS011;7419;52.184;5.944;2022-09-30T05:51:38;2.98;;;2.28;;
14663;SDS011;7419;52.184;5.944;2022-09-30T05:52:38;2.51;;;2.07;;
14663;SDS011;7419;52.184;5.944;2022-09-30T05:53:38;2.46;;;2.22;;
14663;SDS011;7419;52.184;5.944;2022-09-30T05:54:38;5.00;;;2.59;;
14663;SDS011;7419;52.184;5.944;2022-09-30T05:55:38;2.85;;;2.23;;
14663;SDS011;7419;52.184;5.944;2022-09-30T05:56:38;3.19;;;2.07;;
14663;SDS011;7419;52.184;5.944;2022-09-30T05:57:38;3.54;;;2.26;;
14663;SDS011;7419;52.184;5.944;2022-09-30T05:58:39;3.17;;;2.17;;
14663;SDS011;7419;52.184;5.944;2022-09-30T05:59:38;3.35;;;2.61;;
14663;SDS011;7419;52.184;5.944;2022-09-30T06:00:39;3.05;;;2.33;;
14663;SDS011;7419;52.184;5.944;2022-09-30T06:01:38;3.63;;;2.34;;
14663;SDS011;7419;52.184;5.944;2022-09-30T06:02:38;2.51;;;1.93;;
14663;SDS011;7419;52.184;5.944;2022-09-30T06:03:39;4.59;;;2.11;;
14663;SDS011;7419;52.184;5.944;2022-09-30T06:04:39;2.71;;;2.26;;
14663;SDS011;7419;52.184;5.944;2022-09-30T06:05:39;3.30;;;1.92;;
14663;SDS011;7419;52.184;5.944;2022-09-30T06:06:39;2.83;;;1.93;;
14663;SDS011;7419;52.184;5.944;2022-09-30T06:07:39;3.04;;;2.40;;
14663;SDS011;7419;52.184;5.944;2022-09-30T06:08:39;2.77;;;1.87;;
14663;SDS011;7419;52.184;5.944;2022-09-30T06:09:39;1.80;;;1.59;;